Time;durP1;ratioP1;P1;durP2;ratioP2;P2;SDS_P1;SDS_P2;PMS_P1;PMS_P2;Temp;Humidity;BMP_temperature;BMP_pressure;BME280_temperature;BME280_humidity;BME280_pressure;Samples;Min_cycle;Max_cycle;Signal;HPM_P1;HPM_P2
2023/03/05 00:01:55;;;;;;;24.58;13.75;;;25.70;99.90;;;;;;5063469;28;20071;-67
2023/03/05 00:04:22;;;;;;;29.50;14.05;;;25.70;99.90;;;;;;5055619;28;20079;-67
2023/03/05 00:06:49;;;;;;;19.88;12.63;;;25.70;99.90;;;;;;5055502;28;20056;-67
2023/03/05 00:09:16;;;;;;;26.80;13.25;;;25.70;99.90;;;;;;5055596;28;20032;-67
2023/03/05 00:11:42;;;;;;;25.50;14.38;;;25.70;99.90;;;;;;5055574;28;20017;-67
2023/03/05 00:14:10;;;;;;;24.90;13.25;;;25.70;99.90;;;;;;5055472;28;20032;-67
2023/03/05 00:16:37;;;;;;;27.02;12.57;;;25.70;99.90;;;;;;5055538;28;20033;-67
2023/03/05 00:19:04;;;;;;;26.45;13.45;;;25.70;99.90;;;;;;5055555;28;20036;-67
2023/03/05 00:21:38;;;;;;;22.75;11.52;;;25.70;99.90;;;;;;5046879;28;20029;-67
2023/03/05 00:24:08;;;;;;;20.08;12.45;;;25.80;99.90;;;;;;5035178;28;20384;-67
2023/03/05 00:26:37;;;;;;;20.90;11.90;;;25.80;99.90;;;;;;5035441;28;20103;-68
2023/03/05 00:29:05;;;;;;;17.90;11.45;;;25.80;99.90;;;;;;5035207;28;20021;-67
2023/03/05 00:31:33;;;;;;;32.30;12.35;;;25.90;99.90;;;;;;5035214;28;20022;-67
2023/03/05 00:34:04;;;;;;;22.70;11.63;;;26.10;99.90;;;;;;5035258;28;20514;-67
2023/03/05 00:36:31;;;;;;;26.48;11.10;;;26.10;99.90;;;;;;5035321;28;20033;-67
2023/03/05 00:38:58;;;;;;;19.52;10.13;;;26.20;99.90;;;;;;5035162;28;20518;-67
2023/03/05 00:41:25;;;;;;;20.60;11.52;;;26.30;99.90;;;;;;5035045;28;20044;-67
2023/03/05 00:43:52;;;;;;;19.90;11.27;;;26.40;99.90;;;;;;5035024;28;20076;-67
2023/03/05 00:46:19;;;;;;;17.00;11.48;;;26.50;99.90;;;;;;5034989;28;20029;-68
2023/03/05 00:48:45;;;;;;;22.88;12.18;;;26.50;99.90;;;;;;5035006;28;20022;-67
2023/03/05 00:51:12;;;;;;;23.33;12.00;;;26.50;99.90;;;;;;5034767;28;20060;-67
2023/03/05 00:53:38;;;;;;;25.23;13.32;;;26.60;99.90;;;;;;5034822;28;20513;-67
2023/03/05 00:56:06;;;;;;;22.23;10.70;;;26.60;99.90;;;;;;5034800;28;20045;-67
2023/03/05 00:58:32;;;;;;;21.27;12.40;;;26.60;99.90;;;;;;5034682;28;20552;-67
2023/03/05 01:01:01;;;;;;;28.52;12.60;;;26.60;99.90;;;;;;5038472;28;20108;-67
2023/03/05 01:03:29;;;;;;;23.73;12.63;;;26.60;99.90;;;;;;5054527;28;20146;-67
2023/03/05 01:05:55;;;;;;;24.88;13.82;;;26.70;99.90;;;;;;5054777;28;20477;-67
2023/03/05 01:08:23;;;;;;;30.02;17.63;;;26.80;99.90;;;;;;5054585;28;20025;-67
2023/03/05 01:10:49;;;;;;;33.20;19.88;;;26.90;99.90;;;;;;5054411;28;20025;-67
2023/03/05 01:13:16;;;;;;;25.10;15.43;;;26.90;99.90;;;;;;5054578;28;20470;-67
2023/03/05 01:15:42;;;;;;;18.67;12.23;;;26.90;99.90;;;;;;5054324;28;20036;-67
2023/03/05 01:18:10;;;;;;;21.25;11.95;;;27.00;99.90;;;;;;5054573;28;20052;-67
2023/03/05 01:20:36;;;;;;;21.75;11.32;;;27.00;99.90;;;;;;5054161;28;20496;-67
2023/03/05 01:23:03;;;;;;;21.00;11.93;;;27.00;99.90;;;;;;5053991;28;20052;-67
2023/03/05 01:25:29;;;;;;;15.57;10.57;;;27.10;99.90;;;;;;5054196;28;20017;-67
2023/03/05 01:27:56;;;;;;;30.15;18.38;;;27.10;99.90;;;;;;5054056;28;20041;-67
2023/03/05 01:30:22;;;;;;;17.35;12.07;;;27.10;99.90;;;;;;5054095;28;20060;-67
2023/03/05 01:32:49;;;;;;;28.25;15.13;;;27.10;99.90;;;;;;5053989;28;20028;-67
2023/03/05 01:35:20;;;;;;;23.83;13.23;;;27.10;99.90;;;;;;5053803;28;20025;-67
2023/03/05 01:37:47;;;;;;;20.80;12.88;;;27.10;99.90;;;;;;5053989;28;20030;-66
2023/03/05 01:40:17;;;;;;;25.48;13.88;;;27.20;99.90;;;;;;5053919;28;20028;-67
2023/03/05 01:42:46;;;;;;;16.85;9.80;;;27.20;99.90;;;;;;5053744;28;20025;-67
2023/03/05 01:45:17;;;;;;;17.77;9.98;;;27.20;99.90;;;;;;5053783;28;20108;-67
2023/03/05 01:47:44;;;;;;;20.83;11.70;;;27.20;99.90;;;;;;5053728;28;20017;-67
2023/03/05 01:50:15;;;;;;;25.13;13.43;;;27.20;99.90;;;;;;5053234;28;20494;-67
2023/03/05 01:52:45;;;;;;;16.50;10.85;;;27.30;99.90;;;;;;5053729;28;20020;-68
2023/03/05 01:55:20;;;;;;;20.70;13.00;;;27.30;99.90;;;;;;5053452;28;20048;-68
2023/03/05 01:57:53;;;;;;;20.95;12.25;;;27.30;99.90;;;;;;5053784;28;20021;-67
2023/03/05 02:00:25;;;;;;;25.65;13.43;;;27.30;99.90;;;;;;5053438;28;20496;-68
2023/03/05 02:02:52;;;;;;;22.80;12.48;;;27.40;99.90;;;;;;5053569;28;20017;-68
2023/03/05 02:05:28;;;;;;;21.38;11.48;;;27.50;99.90;;;;;;5053619;28;20413;-68
2023/03/05 02:08:00;;;;;;;27.27;14.18;;;27.50;99.90;;;;;;5053270;28;20386;-67
2023/03/05 02:10:30;;;;;;;41.27;26.60;;;27.50;99.90;;;;;;5053450;28;20433;-69
2023/03/05 02:13:00;;;;;;;43.25;21.52;;;27.50;99.90;;;;;;5053384;28;20017;-70
2023/03/05 02:15:27;;;;;;;40.63;22.50;;;27.60;99.90;;;;;;5053324;28;20025;-69
2023/03/05 02:17:54;;;;;;;30.05;17.42;;;27.70;99.90;;;;;;5053379;28;20033;-69
2023/03/05 02:20:25;;;;;;;23.70;11.18;;;27.60;99.90;;;;;;5053226;28;20079;-68
2023/03/05 02:22:52;;;;;;;16.98;10.98;;;27.70;99.90;;;;;;5053015;28;20041;-67
2023/03/05 02:25:21;;;;;;;23.67;13.63;;;27.60;99.90;;;;;;5053242;28;20031;-68
2023/03/05 02:28:14;;;;;;;32.10;19.38;;;27.70;99.90;;;;;;5053199;28;20090;-69
2023/03/05 02:30:40;;;;;;;23.67;14.70;;;27.70;99.90;;;;;;5051128;28;20473;-69
2023/03/05 02:33:07;;;;;;;21.33;9.60;;;27.80;99.90;;;;;;5051017;28;20075;-68
2023/03/05 02:35:34;;;;;;;19.52;9.88;;;27.90;99.90;;;;;;5050761;28;20029;-68
2023/03/05 02:38:00;;;;;;;16.00;10.77;;;27.90;99.90;;;;;;5059072;28;20500;-68
2023/03/05 02:40:27;;;;;;;32.92;17.00;;;28.00;99.90;;;;;;5070878;28;20048;-68
2023/03/05 02:42:54;;;;;;;29.10;14.60;;;28.10;99.90;;;;;;5070915;28;20486;-68
2023/03/05 02:45:21;;;;;;;33.67;15.20;;;28.20;99.90;;;;;;5071032;28;20037;-69
2023/03/05 02:47:47;;;;;;;33.35;18.52;;;28.30;99.90;;;;;;5070733;28;20475;-69
2023/03/05 02:50:14;;;;;;;23.00;11.23;;;28.40;99.90;;;;;;5071141;28;20390;-69
2023/03/05 02:52:40;;;;;;;33.47;17.48;;;28.50;99.90;;;;;;5070906;28;20493;-68
2023/03/05 02:55:07;;;;;;;56.42;24.83;;;28.50;99.90;;;;;;5070619;28;20036;-66
2023/03/05 02:57:34;;;;;;;28.95;18.48;;;28.50;99.90;;;;;;5070913;28;20031;-68
2023/03/05 03:00:00;;;;;;;31.13;13.35;;;28.60;99.90;;;;;;5071681;28;20017;-68
2023/03/05 03:02:27;;;;;;;22.42;14.32;;;28.60;99.90;;;;;;5076954;28;20125;-66
2023/03/05 03:04:53;;;;;;;17.98;9.13;;;28.60;99.90;;;;;;5076678;28;20029;-67
2023/03/05 03:07:20;;;;;;;24.88;13.60;;;28.60;99.90;;;;;;5076911;28;20037;-67
2023/03/05 03:09:46;;;;;;;22.60;12.38;;;28.50;99.90;;;;;;5076595;28;20078;-68
2023/03/05 03:12:13;;;;;;;15.55;9.43;;;28.50;99.90;;;;;;5076473;28;20021;-68
2023/03/05 03:14:41;;;;;;;19.98;11.05;;;28.60;99.90;;;;;;5076517;28;20073;-67
2023/03/05 03:17:13;;;;;;;19.42;9.73;;;28.70;99.90;;;;;;5076460;28;20032;-67
2023/03/05 03:19:41;;;;;;;18.02;8.48;;;28.80;99.90;;;;;;5076438;28;20082;-67
2023/03/05 03:22:09;;;;;;;17.50;8.27;;;28.80;99.90;;;;;;5076205;28;20040;-67
2023/03/05 03:24:37;;;;;;;20.13;9.07;;;28.90;99.90;;;;;;5076420;28;20020;-67
2023/03/05 03:27:04;;;;;;;16.02;8.05;;;28.90;99.90;;;;;;5076363;28;20021;-69
2023/03/05 03:29:30;;;;;;;16.73;8.00;;;28.90;99.90;;;;;;5076223;28;20021;-69
2023/03/05 03:31:57;;;;;;;17.85;9.93;;;29.00;99.90;;;;;;5076156;28;20029;-69
2023/03/05 03:34:24;;;;;;;17.42;10.30;;;29.20;99.90;;;;;;5076162;28;20029;-69
2023/03/05 03:36:51;;;;;;;14.80;8.05;;;29.30;99.90;;;;;;5050166;28;20104;-68
2023/03/05 03:39:19;;;;;;;13.93;7.32;;;29.40;99.90;;;;;;5045593;28;20611;-69
2023/03/05 03:41:48;;;;;;;20.13;9.15;;;29.40;99.90;;;;;;5044658;28;20033;-68
2023/03/05 03:44:16;;;;;;;13.00;8.48;;;29.50;99.90;;;;;;5043533;28;20018;-68
2023/03/05 03:46:45;;;;;;;18.67;9.70;;;29.50;99.90;;;;;;5045433;28;20021;-69
2023/03/05 03:49:22;;;;;;;14.70;9.20;;;29.60;99.90;;;;;;5043620;28;20040;-68
2023/03/05 03:51:51;;;;;;;21.23;9.20;;;29.70;99.90;;;;;;5045617;28;20021;-68
2023/03/05 03:54:18;;;;;;;16.40;8.30;;;29.70;99.90;;;;;;5045239;28;20425;-69
2023/03/05 03:56:45;;;;;;;18.52;11.57;;;29.80;99.90;;;;;;5042764;28;20025;-69
2023/03/05 03:59:13;;;;;;;19.55;11.63;;;29.80;99.90;;;;;;5045474;28;20539;-69
2023/03/05 04:01:39;;;;;;;17.13;7.28;;;29.90;99.90;;;;;;5045239;28;20036;-69
2023/03/05 04:04:06;;;;;;;13.00;8.20;;;29.90;99.90;;;;;;5038607;28;20425;-69
2023/03/05 04:06:33;;;;;;;15.00;7.60;;;29.90;99.90;;;;;;5035619;28;20024;-69
2023/03/05 04:09:00;;;;;;;22.27;10.32;;;30.00;99.90;;;;;;5034567;28;20056;-68
2023/03/05 04:11:26;;;;;;;15.75;10.93;;;30.10;99.90;;;;;;5034859;28;20017;-69
2023/03/05 04:13:53;;;;;;;14.82;7.50;;;30.20;99.90;;;;;;5035345;28;20482;-69
2023/03/05 04:16:19;;;;;;;12.98;6.95;;;30.20;99.90;;;;;;5035350;28;20032;-69
2023/03/05 04:18:46;;;;;;;15.88;6.88;;;30.20;99.90;;;;;;5035392;28;20033;-68
2023/03/05 04:21:13;;;;;;;14.48;7.95;;;30.10;99.90;;;;;;5035405;28;20112;-69
2023/03/05 04:23:39;;;;;;;13.73;8.57;;;30.00;99.90;;;;;;5034956;28;20041;-68
2023/03/05 04:26:06;;;;;;;14.93;9.18;;;30.00;99.90;;;;;;5035315;28;20044;-69
2023/03/05 04:28:33;;;;;;;16.65;8.90;;;30.10;99.90;;;;;;5035210;28;20072;-69
2023/03/05 04:30:59;;;;;;;18.30;7.72;;;30.30;99.90;;;;;;5035037;28;20052;-68
2023/03/05 04:33:26;;;;;;;11.25;7.50;;;30.40;99.90;;;;;;5035177;28;20082;-68
2023/03/05 04:35:52;;;;;;;16.00;7.72;;;30.50;99.90;;;;;;5037708;28;20025;-69
2023/03/05 04:38:19;;;;;;;17.60;10.13;;;30.50;99.90;;;;;;5034939;28;20025;-68
2023/03/05 04:40:47;;;;;;;18.25;10.40;;;30.50;99.90;;;;;;5041180;28;20122;-68
2023/03/05 04:43:13;;;;;;;10.75;7.32;;;30.60;99.90;;;;;;5044109;28;20466;-68
2023/03/05 04:45:41;;;;;;;28.40;19.98;;;30.70;99.90;;;;;;5045235;28;20079;-68
2023/03/05 04:48:09;;;;;;;21.33;14.82;;;30.70;99.90;;;;;;5044222;28;20033;-69
2023/03/05 04:50:36;;;;;;;18.58;10.32;;;30.80;99.90;;;;;;5046132;28;20380;-69
2023/03/05 04:53:03;;;;;;;14.38;8.43;;;30.70;99.90;;;;;;5045181;28;20104;-69
2023/03/05 04:55:30;;;;;;;20.17;12.18;;;30.70;99.90;;;;;;5044237;28;20100;-69
2023/03/05 04:57:56;;;;;;;17.98;9.07;;;30.60;99.90;;;;;;5043418;28;20013;-69
2023/03/05 05:00:23;;;;;;;14.07;7.88;;;30.60;99.90;;;;;;5045033;28;20031;-69
2023/03/05 05:02:51;;;;;;;14.73;7.93;;;30.70;99.90;;;;;;5043985;28;20025;-68
2023/03/05 05:05:21;;;;;;;17.33;9.43;;;30.80;99.90;;;;;;5043144;28;20105;-68
2023/03/05 05:07:47;;;;;;;14.35;8.50;;;30.80;99.90;;;;;;5043396;28;20022;-72
2023/03/05 05:10:15;;;;;;;14.07;7.25;;;30.80;99.90;;;;;;5043556;28;20024;-72
2023/03/05 05:12:42;;;;;;;14.43;7.97;;;30.70;99.90;;;;;;5044887;28;20021;-70
2023/03/05 05:15:10;;;;;;;13.52;7.00;;;30.70;99.90;;;;;;5043456;28;20467;-68
2023/03/05 05:17:36;;;;;;;14.38;8.57;;;30.80;99.90;;;;;;5043022;28;20108;-69
2023/03/05 05:20:06;;;;;;;18.40;8.18;;;30.90;99.90;;;;;;5047662;28;20112;-69
2023/03/05 05:22:34;;;;;;;17.27;8.88;;;30.90;99.90;;;;;;5043731;28;20053;-71
2023/03/05 05:25:00;;;;;;;19.52;10.52;;;31.00;99.90;;;;;;5041621;28;20378;-68
2023/03/05 05:27:27;;;;;;;13.50;8.43;;;31.00;99.90;;;;;;5042743;28;20514;-70
2023/03/05 05:29:53;;;;;;;13.88;7.32;;;31.00;99.90;;;;;;5043044;28;20048;-69
2023/03/05 05:32:22;;;;;;;12.88;6.93;;;31.00;99.90;;;;;;5044542;28;20009;-70
2023/03/05 05:34:54;;;;;;;11.15;6.55;;;31.00;99.90;;;;;;5043173;28;20083;-69
2023/03/05 05:37:21;;;;;;;14.32;6.68;;;31.10;99.90;;;;;;5042220;28;20030;-72
2023/03/05 05:39:49;;;;;;;13.13;8.00;;;31.20;99.90;;;;;;5045002;28;20029;-71
2023/03/05 05:42:17;;;;;;;13.43;6.88;;;31.20;99.90;;;;;;5037438;28;20036;-73
2023/03/05 05:44:43;;;;;;;15.75;7.88;;;31.20;99.90;;;;;;5033484;28;20091;-73
2023/03/05 05:47:10;;;;;;;13.98;7.18;;;31.10;99.90;;;;;;5033839;28;20022;-71
2023/03/05 05:49:36;;;;;;;12.02;6.32;;;31.10;99.90;;;;;;5033750;28;20497;-71
2023/03/05 05:52:03;;;;;;;24.35;12.32;;;31.20;99.90;;;;;;5033456;28;20032;-71
2023/03/05 05:54:30;;;;;;;15.23;8.23;;;31.30;99.90;;;;;;5033661;28;20053;-71
2023/03/05 05:56:56;;;;;;;14.00;7.15;;;31.20;99.90;;;;;;5033664;28;20029;-74
2023/03/05 05:59:23;;;;;;;13.07;7.05;;;31.20;99.90;;;;;;5032088;28;20441;-70
2023/03/05 06:01:50;;;;;;;12.95;7.43;;;31.20;99.90;;;;;;5033413;28;20033;-69
2023/03/05 06:04:16;;;;;;;13.65;6.80;;;31.30;99.90;;;;;;5038652;28;20089;-68
2023/03/05 06:06:43;;;;;;;10.23;6.30;;;31.30;99.90;;;;;;5033269;28;20025;-69
2023/03/05 06:09:09;;;;;;;14.98;7.15;;;31.40;99.90;;;;;;5033430;28;20026;-69
2023/03/05 06:11:37;;;;;;;12.50;6.75;;;31.40;99.90;;;;;;5033167;28;20033;-68
2023/03/05 06:14:03;;;;;;;40.72;23.10;;;31.40;99.90;;;;;;5033169;28;20486;-69
2023/03/05 06:16:30;;;;;;;21.52;11.30;;;31.50;99.90;;;;;;5033323;28;20029;-69
2023/03/05 06:18:57;;;;;;;16.27;10.75;;;31.50;99.90;;;;;;5033210;28;20033;-70
2023/03/05 06:21:23;;;;;;;15.40;8.20;;;31.50;99.90;;;;;;5033101;28;20083;-68
2023/03/05 06:23:50;;;;;;;13.23;7.70;;;31.70;99.90;;;;;;5032980;28;20052;-69
2023/03/05 06:26:20;;;;;;;13.00;7.40;;;31.80;99.90;;;;;;5032496;28;20025;-69
2023/03/05 06:28:47;;;;;;;8.93;5.90;;;31.80;99.90;;;;;;5031126;28;20025;-69
2023/03/05 06:31:15;;;;;;;10.50;6.50;;;31.70;99.90;;;;;;5031260;28;20097;-68
2023/03/05 06:33:42;;;;;;;11.95;7.32;;;31.70;99.90;;;;;;5031750;28;20100;-70
2023/03/05 06:36:11;;;;;;;16.90;8.60;;;31.80;99.90;;;;;;5032173;28;20060;-69
2023/03/05 06:38:38;;;;;;;9.85;5.95;;;31.90;99.90;;;;;;5032705;28;20057;-69
2023/03/05 06:41:08;;;;;;;13.63;6.75;;;31.90;99.90;;;;;;5032861;28;20022;-69
2023/03/05 06:43:37;;;;;;;13.65;7.55;;;31.90;99.90;;;;;;5032849;28;20040;-70
2023/03/05 06:46:11;;;;;;;15.75;8.35;;;31.90;99.90;;;;;;5033465;28;20059;-70
2023/03/05 06:48:38;;;;;;;17.13;9.38;;;31.90;99.90;;;;;;5033039;28;20037;-70
2023/03/05 06:51:11;;;;;;;12.00;6.80;;;32.00;99.90;;;;;;5032839;28;20018;-69
2023/03/05 06:53:37;;;;;;;13.80;7.25;;;32.10;99.90;;;;;;5032931;28;20022;-69
2023/03/05 06:56:04;;;;;;;18.98;9.35;;;32.10;99.90;;;;;;5033172;28;20045;-68
2023/03/05 06:58:31;;;;;;;17.40;9.07;;;32.10;99.90;;;;;;5032949;28;20565;-69
2023/03/05 07:00:57;;;;;;;13.80;7.70;;;32.10;99.90;;;;;;5032829;28;20384;-70
2023/03/05 07:03:24;;;;;;;23.88;14.27;;;32.10;99.90;;;;;;5032854;28;20041;-69
2023/03/05 07:05:50;;;;;;;15.23;8.27;;;32.20;99.90;;;;;;5032965;28;20100;-69
2023/03/05 07:08:17;;;;;;;28.48;20.10;;;32.10;99.90;;;;;;5032926;28;20148;-73
2023/03/05 07:10:44;;;;;;;33.55;19.85;;;32.00;99.90;;;;;;5032838;28;20021;-70
2023/03/05 07:13:10;;;;;;;50.67;30.77;;;32.00;99.90;;;;;;5032602;28;20474;-70
2023/03/05 07:15:39;;;;;;;35.00;19.50;;;32.00;99.90;;;;;;5032974;28;20471;-69
2023/03/05 07:18:06;;;;;;;25.05;14.55;;;32.00;99.90;;;;;;5032787;28;20100;-70
2023/03/05 07:20:35;;;;;;;20.05;10.25;;;32.00;99.90;;;;;;5032502;28;20486;-69
2023/03/05 07:23:02;;;;;;;22.23;11.90;;;32.10;99.90;;;;;;5032567;28;20072;-70
2023/03/05 07:25:29;;;;;;;20.63;8.80;;;32.20;99.90;;;;;;5032721;28;20103;-70
2023/03/05 07:27:56;;;;;;;17.38;8.57;;;32.30;99.90;;;;;;5032710;28;20026;-70
2023/03/05 07:30:23;;;;;;;25.50;13.52;;;32.40;99.90;;;;;;5032635;28;20388;-69
2023/03/05 07:32:49;;;;;;;14.23;8.13;;;32.30;99.90;;;;;;5032600;28;20099;-70
2023/03/05 07:35:16;;;;;;;164.07;100.82;;;32.30;99.90;;;;;;5032426;28;20382;-69
2023/03/05 07:37:42;;;;;;;108.72;67.18;;;32.20;99.90;;;;;;5032549;28;20104;-71
2023/03/05 07:40:10;;;;;;;46.92;27.48;;;32.10;99.90;;;;;;5053717;28;20033;-67
2023/03/05 07:42:36;;;;;;;20.17;12.15;;;32.20;99.90;;;;;;5052072;28;20036;-73
2023/03/05 07:45:03;;;;;;;42.13;22.55;;;32.30;99.90;;;;;;5057759;28;20051;-71
2023/03/05 07:47:30;;;;;;;18.75;11.63;;;32.50;99.90;;;;;;5054109;28;20017;-74
2023/03/05 07:49:56;;;;;;;13.75;8.35;;;32.50;99.90;;;;;;5041652;28;20021;-69
2023/03/05 07:52:23;;;;;;;13.20;8.40;;;32.50;99.90;;;;;;5052923;28;20047;-65
2023/03/05 07:54:49;;;;;;;13.63;8.70;;;32.50;99.90;;;;;;5056067;28;20029;-67
2023/03/05 07:57:16;;;;;;;16.17;9.50;;;32.50;99.90;;;;;;5055979;28;20032;-68
2023/03/05 07:59:42;;;;;;;17.63;9.25;;;32.50;99.90;;;;;;5056012;28;20020;-66
2023/03/05 08:02:18;;;;;;;18.98;8.57;;;32.60;99.90;;;;;;5055187;28;20490;-68
2023/03/05 08:04:45;;;;;;;190.73;122.60;;;32.60;99.90;;;;;;5055656;28;20032;-65
2023/03/05 08:07:14;;;;;;;87.20;53.75;;;32.60;99.90;;;;;;5055855;28;20049;-65
2023/03/05 08:09:41;;;;;;;15.80;9.27;;;32.70;99.90;;;;;;5047360;28;20024;-65
2023/03/05 08:12:09;;;;;;;18.05;8.50;;;32.80;99.90;;;;;;5046603;28;20039;-65
2023/03/05 08:14:36;;;;;;;13.50;7.72;;;32.90;99.90;;;;;;5057143;28;20107;-63
2023/03/05 08:17:04;;;;;;;10.43;6.78;;;32.90;99.90;;;;;;5056763;28;20112;-68
2023/03/05 08:19:32;;;;;;;15.18;7.53;;;32.90;99.90;;;;;;5056379;28;20075;-64
2023/03/05 08:21:58;;;;;;;14.98;7.45;;;32.90;99.90;;;;;;5040630;28;20038;-62
2023/03/05 08:24:28;;;;;;;19.73;12.02;;;33.00;99.90;;;;;;5042039;28;20033;-64
2023/03/05 08:26:57;;;;;;;14.43;7.93;;;33.10;99.90;;;;;;5047419;28;20025;-65
2023/03/05 08:29:24;;;;;;;16.00;8.20;;;33.20;99.90;;;;;;5042743;28;20521;-64
2023/03/05 08:31:52;;;;;;;26.35;14.98;;;33.30;99.50;;;;;;5046032;28;20017;-62
2023/03/05 08:34:20;;;;;;;18.95;10.60;;;33.20;99.90;;;;;;5045346;28;20025;-67
2023/03/05 08:36:47;;;;;;;22.85;12.82;;;33.20;99.90;;;;;;5046648;28;20053;-63
2023/03/05 08:39:14;;;;;;;14.90;7.97;;;33.20;99.90;;;;;;5043928;28;20032;-63
2023/03/05 08:41:41;;;;;;;22.63;14.13;;;33.30;99.90;;;;;;5056417;28;20025;-64
2023/03/05 08:44:08;;;;;;;33.10;16.75;;;33.40;99.90;;;;;;5047689;28;20033;-66
2023/03/05 08:46:34;;;;;;;42.28;27.27;;;33.40;99.90;;;;;;5035416;28;20037;-66
2023/03/05 08:49:01;;;;;;;29.80;20.60;;;33.40;99.90;;;;;;5035134;28;20490;-66
2023/03/05 08:51:28;;;;;;;14.32;10.38;;;33.40;99.90;;;;;;5037050;28;20470;-66
2023/03/05 08:54:14;;;;;;;20.63;12.07;;;33.40;99.90;;;;;;5035958;28;20037;-66
2023/03/05 08:56:40;;;;;;;25.98;12.57;;;33.40;99.90;;;;;;5072969;28;20043;-66
2023/03/05 08:59:07;;;;;;;18.83;10.15;;;33.40;99.90;;;;;;5072079;28;20040;-65
2023/03/05 09:01:34;;;;;;;23.55;12.95;;;33.40;99.90;;;;;;5071865;28;20060;-66
2023/03/05 09:04:00;;;;;;;55.17;37.22;;;33.30;99.90;;;;;;5072452;28;20024;-65
2023/03/05 09:06:28;;;;;;;19.65;12.25;;;33.20;99.90;;;;;;5072457;28;20029;-65
2023/03/05 09:08:54;;;;;;;20.55;9.35;;;33.20;99.90;;;;;;5072265;28;20087;-66
2023/03/05 09:11:21;;;;;;;18.27;9.85;;;33.20;99.90;;;;;;5072287;28;20024;-65
2023/03/05 09:13:48;;;;;;;13.13;8.45;;;33.20;99.90;;;;;;5072210;28;20481;-65
2023/03/05 09:16:17;;;;;;;39.35;23.98;;;33.20;99.90;;;;;;5072329;28;20032;-65
2023/03/05 09:18:43;;;;;;;20.65;11.55;;;33.30;99.90;;;;;;5072262;28;20028;-66
2023/03/05 09:21:15;;;;;;;18.33;12.88;;;33.30;99.10;;;;;;5072257;28;20094;-66
2023/03/05 09:23:42;;;;;;;25.67;18.55;;;33.30;99.90;;;;;;5071824;28;20056;-66
2023/03/05 09:26:11;;;;;;;32.08;18.50;;;33.20;99.50;;;;;;5071975;28;20036;-66
2023/03/05 09:28:39;;;;;;;18.05;10.50;;;33.20;99.90;;;;;;5072029;28;20055;-66
2023/03/05 09:31:08;;;;;;;15.40;10.27;;;33.20;99.40;;;;;;5071942;28;20024;-66
2023/03/05 09:33:35;;;;;;;16.38;11.25;;;33.20;99.10;;;;;;5055530;28;20041;-65
2023/03/05 09:36:02;;;;;;;21.35;11.75;;;33.20;99.20;;;;;;5034120;28;20033;-66
2023/03/05 09:38:29;;;;;;;21.45;14.48;;;33.20;99.40;;;;;;5035033;28;20045;-66
2023/03/05 09:41:06;;;;;;;25.10;16.65;;;33.20;99.60;;;;;;5043105;28;20040;-65
2023/03/05 09:43:55;;;;;;;25.75;15.80;;;33.20;99.80;;;;;;5044612;28;20020;-64
2023/03/05 09:46:29;;;;;;;36.25;19.35;;;33.10;99.50;;;;;;5038798;28;20302;-66
2023/03/05 09:49:09;;;;;;;47.00;26.20;;;33.10;99.90;;;;;;5043772;28;20071;-66
2023/03/05 09:51:40;;;;;;;47.60;26.38;;;33.10;99.90;;;;;;5043191;28;20009;-66
2023/03/05 09:54:13;;;;;;;42.00;25.00;;;33.10;99.80;;;;;;5041968;28;20422;-66
2023/03/05 09:56:43;;;;;;;44.65;27.00;;;33.10;99.90;;;;;;5044690;28;20082;-66
2023/03/05 09:59:50;;;;;;;29.27;18.60;;;33.00;99.90;;;;;;5053743;28;20032;-66
2023/03/05 10:02:38;;;;;;;20.65;14.63;;;33.00;99.90;;;;;;5053670;28;20029;-67
2023/03/05 10:05:12;;;;;;;19.67;12.38;;;33.00;99.70;;;;;;5053440;28;20025;-66
2023/03/05 10:07:44;;;;;;;15.80;10.18;;;32.90;99.20;;;;;;5053419;28;20087;-65
2023/03/05 10:10:17;;;;;;;19.92;12.63;;;32.90;99.20;;;;;;5052941;28;20021;-66
2023/03/05 10:12:50;;;;;;;18.02;10.48;;;32.90;99.40;;;;;;5053444;28;20029;-64
2023/03/05 10:15:40;;;;;;;22.52;11.70;;;32.90;99.10;;;;;;5053238;28;20033;-66
2023/03/05 10:18:16;;;;;;;23.73;13.45;;;32.90;99.10;;;;;;5046898;28;20028;-66
2023/03/05 10:20:55;;;;;;;21.02;10.27;;;32.90;98.80;;;;;;5040410;28;20029;-66
2023/03/05 10:23:45;;;;;;;23.38;13.40;;;32.90;98.70;;;;;;5041501;28;20060;-64
2023/03/05 10:26:37;;;;;;;34.25;18.80;;;32.90;99.00;;;;;;5043229;28;20033;-65
2023/03/05 10:29:15;;;;;;;41.15;20.60;;;32.90;99.60;;;;;;5042377;28;20034;-66
2023/03/05 10:32:01;;;;;;;40.83;19.15;;;32.80;99.90;;;;;;5042000;28;20025;-66
2023/03/05 10:34:39;;;;;;;37.38;20.67;;;32.80;99.90;;;;;;5042705;28;20506;-65
2023/03/05 10:37:09;;;;;;;27.55;15.95;;;32.70;99.90;;;;;;5039477;28;20120;-65
2023/03/05 10:39:39;;;;;;;28.23;15.82;;;32.80;99.90;;;;;;5047014;28;20474;-64
2023/03/05 10:42:10;;;;;;;26.25;15.18;;;32.70;99.90;;;;;;5046317;28;20028;-69
2023/03/05 10:44:59;;;;;;;32.00;16.95;;;32.70;99.90;;;;;;5042839;28;20470;-68
2023/03/05 10:47:29;;;;;;;28.05;18.50;;;32.70;99.90;;;;;;5041741;28;20493;-69
2023/03/05 10:49:58;;;;;;;32.47;14.38;;;32.70;99.90;;;;;;5043461;28;20017;-68
2023/03/05 10:52:31;;;;;;;34.45;20.23;;;32.40;99.90;;;;;;5041604;28;20040;-69
2023/03/05 10:54:57;;;;;;;37.65;17.00;;;32.00;99.90;;;;;;5043007;28;20551;-68
2023/03/05 10:57:25;;;;;;;61.45;31.80;;;31.90;99.90;;;;;;5041874;28;20497;-69
2023/03/05 10:59:57;;;;;;;55.65;31.98;;;31.70;99.90;;;;;;5038859;28;20525;-69
2023/03/05 11:02:24;;;;;;;38.65;27.38;;;31.50;99.90;;;;;;5041432;28;20029;-70
2023/03/05 11:04:52;;;;;;;47.38;33.97;;;31.40;99.90;;;;;;5042713;28;20444;-68
2023/03/05 11:07:18;;;;;;;40.08;25.60;;;31.30;99.90;;;;;;5041452;28;20524;-67
2023/03/05 11:10:13;;;;;;;40.65;20.58;;;31.30;99.90;;;;;;5041202;28;20017;-67
2023/03/05 11:12:40;;;;;;;27.75;14.65;;;31.20;99.90;;;;;;5044194;28;20013;-69
2023/03/05 11:15:09;;;;;;;26.08;14.27;;;31.10;99.90;;;;;;5052248;28;20059;-71
2023/03/05 11:17:42;;;;;;;40.60;28.25;;;30.90;99.90;;;;;;5045483;28;20022;-70
2023/03/05 11:20:19;;;;;;;59.25;39.60;;;30.80;99.90;;;;;;5050916;28;20083;-70
2023/03/05 11:23:05;;;;;;;56.58;30.88;;;30.70;99.90;;;;;;5044917;28;20059;-69
2023/03/05 11:25:34;;;;;;;45.33;32.10;;;30.70;99.90;;;;;;5062005;23;20053;-69
2023/03/05 11:28:02;;;;;;;43.47;26.25;;;30.70;99.90;;;;;;5008866;28;20030;-71
2023/03/05 11:30:31;;;;;;;29.67;18.00;;;30.60;99.90;;;;;;5017191;28;20017;-69
2023/03/05 11:33:21;;;;;;;39.88;24.58;;;30.40;99.90;;;;;;5015277;28;20030;-70
2023/03/05 11:36:07;;;;;;;78.35;55.22;;;30.30;99.90;;;;;;5015835;28;20478;-70
2023/03/05 11:38:46;;;;;;;37.08;21.52;;;30.30;99.90;;;;;;5016395;28;20513;-70
2023/03/05 11:41:13;;;;;;;33.30;18.63;;;30.20;99.90;;;;;;5015018;28;20034;-70
2023/03/05 11:43:42;;;;;;;25.13;14.18;;;30.10;99.90;;;;;;5014513;28;20057;-69
2023/03/05 11:46:11;;;;;;;94.57;72.05;;;30.00;99.90;;;;;;5008908;28;20018;-69
2023/03/05 11:48:40;;;;;;;62.47;42.63;;;30.00;99.90;;;;;;5009484;28;20019;-68
2023/03/05 11:51:29;;;;;;;130.50;80.60;;;29.90;99.90;;;;;;5008609;28;20173;-71
2023/03/05 11:54:05;;;;;;;61.92;42.95;;;29.90;99.90;;;;;;5003928;28;20026;-66
2023/03/05 11:56:36;;;;;;;41.53;29.23;;;30.00;99.90;;;;;;5011445;28;20089;-68
2023/03/05 11:59:10;;;;;;;57.50;40.83;;;30.00;99.90;;;;;;5008450;28;20042;-68
2023/03/05 12:01:51;;;;;;;41.45;27.20;;;29.90;99.90;;;;;;5009781;28;20029;-69
2023/03/05 12:04:20;;;;;;;29.30;16.67;;;30.00;99.90;;;;;;5009177;28;20118;-67
2023/03/05 12:07:00;;;;;;;42.28;26.17;;;29.90;99.90;;;;;;4991758;28;20375;-68
2023/03/05 12:09:45;;;;;;;64.00;43.92;;;29.90;99.90;;;;;;5012492;28;20021;-68
2023/03/05 12:12:36;;;;;;;39.30;25.25;;;29.90;99.90;;;;;;5008834;28;20364;-67
2023/03/05 12:15:24;;;;;;;62.92;43.22;;;29.80;99.90;;;;;;5008229;28;20049;-68
2023/03/05 12:18:13;;;;;;;41.10;26.27;;;29.80;99.90;;;;;;4947762;29;20055;-68
2023/03/05 12:21:06;;;;;;;49.22;37.95;;;29.90;99.90;;;;;;4947620;29;20027;-67
2023/03/05 12:23:54;;;;;;;80.00;56.35;;;29.80;99.90;;;;;;4947688;29;20032;-68
2023/03/05 12:27:01;;;;;;;50.83;29.67;;;29.60;99.90;;;;;;4954085;29;20062;-70
2023/03/05 12:29:40;;;;;;;39.80;27.50;;;29.60;99.90;;;;;;4896392;29;20109;-70
2023/03/05 12:32:24;;;;;;;57.40;36.72;;;29.70;99.90;;;;;;4905723;29;20028;-69
2023/03/05 12:35:21;;;;;;;133.18;99.05;;;29.70;99.90;;;;;;4906861;29;20032;-69
2023/03/05 12:37:48;;;;;;;70.63;50.08;;;29.80;99.90;;;;;;4852032;29;20132;-68
2023/03/05 12:40:15;;;;;;;49.90;32.63;;;29.80;99.90;;;;;;4854446;29;20049;-68
2023/03/05 12:42:46;;;;;;;38.97;25.73;;;29.80;99.90;;;;;;4853485;29;20101;-69
2023/03/05 12:45:14;;;;;;;32.67;21.27;;;29.70;99.90;;;;;;4854850;29;20541;-69